Time;durP1;ratioP1;P1;durP2;ratioP2;P2;SDS_P1;SDS_P2;PMS_P1;PMS_P2;Temp;Humidity;BMP_temperature;BMP_pressure;BME280_temperature;BME280_humidity;BME280_pressure;Samples;Min_cycle;Max_cycle;Signal;HPM_P1;HPM_P2
2022/06/08 00:01:50;;;;;;;;;1.67;1.67;;;;;19.28;56.20;100480.00;5079940;27;45968;-66
2022/06/08 00:04:17;;;;;;;;;2.33;2.33;;;;;19.25;56.76;100469.47;5077687;27;45234;-67
2022/06/08 00:06:44;;;;;;;;;4.33;2.00;;;;;19.31;56.76;100471.63;5061434;27;45544;-67
2022/06/08 00:09:09;;;;;;;;;3.33;2.00;;;;;19.32;56.69;100469.78;5084488;27;45536;-66
2022/06/08 00:11:35;;;;;;;;;2.00;2.00;;;;;19.25;56.67;100447.06;5081548;27;46303;-68
2022/06/08 00:14:01;;;;;;;;;2.33;2.00;;;;;19.28;57.02;100453.03;5081474;27;45471;-66
2022/06/08 00:16:27;;;;;;;;;4.00;3.00;;;;;19.25;57.32;100442.53;5081121;27;45440;-66
2022/06/08 00:18:52;;;;;;;;;1.00;1.00;;;;;19.26;56.85;100440.69;5081256;27;45570;-67
2022/06/08 00:21:18;;;;;;;;;5.33;3.00;;;;;19.27;57.54;100445.94;5080414;27;45302;-67
2022/06/08 00:23:47;;;;;;;;;0.00;0.00;;;;;19.25;57.52;100453.31;5081000;27;45481;-68
2022/06/08 00:26:13;;;;;;;;;2.67;2.67;;;;;19.31;57.54;100451.91;5083534;27;45429;-66
2022/06/08 00:28:39;;;;;;;;;3.67;2.00;;;;;19.26;57.71;100444.22;5081449;27;45602;-66
2022/06/08 00:31:05;;;;;;;;;2.00;2.00;;;;;19.25;57.50;100442.53;5078129;27;47734;-66
2022/06/08 00:33:30;;;;;;;;;2.00;2.00;;;;;19.18;57.70;100441.41;5082465;27;45510;-66
2022/06/08 00:35:56;;;;;;;;;5.00;2.67;;;;;19.23;57.67;100449.91;5084579;27;45444;-66
2022/06/08 00:38:22;;;;;;;;;2.00;2.00;;;;;19.20;56.90;100434.03;5078471;27;45444;-65
2022/06/08 00:41:00;;;;;;;;;2.00;2.00;;;;;19.10;57.43;100430.50;5076194;27;45539;-64
2022/06/08 00:43:25;;;;;;;;;3.67;2.00;;;;;19.06;57.72;100432.63;5078602;27;45245;-65
2022/06/08 00:45:51;;;;;;;;;3.00;2.00;;;;;19.09;58.28;100421.56;5079876;27;45254;-67
2022/06/08 00:48:17;;;;;;;;;5.67;2.00;;;;;19.07;57.90;100425.41;5077229;27;45528;-67
2022/06/08 00:50:53;;;;;;;;;1.67;1.67;;;;;18.97;58.13;100416.47;5077814;27;46045;-66
2022/06/08 00:53:27;;;;;;;;;4.33;1.00;;;;;18.97;58.23;100421.88;5079039;27;45490;-65
2022/06/08 00:55:53;;;;;;;;;3.67;2.33;;;;;18.90;58.54;100416.22;5062876;27;45845;-67
2022/06/08 00:58:24;;;;;;;;;1.33;0.00;;;;;18.93;58.87;100431.25;5078384;27;45459;-64
2022/06/08 01:00:51;;;;;;;;;2.33;2.33;;;;;18.87;59.02;100416.47;5076044;27;45320;-66
2022/06/08 01:03:16;;;;;;;;;2.00;2.00;;;;;18.95;59.23;100407.69;5079526;27;45504;-66
2022/06/08 01:05:46;;;;;;;;;1.33;1.33;;;;;18.93;58.79;100404.28;5077576;27;45323;-66
2022/06/08 01:08:36;;;;;;;;;3.00;3.00;;;;;18.91;58.87;100411.69;5081665;27;45465;-64
2022/06/08 01:11:06;;;;;;;;;2.00;2.00;;;;;18.86;59.42;100410.25;5070020;27;45332;-65
2022/06/08 01:13:34;;;;;;;;;5.33;3.00;;;;;18.84;59.25;100404.16;5077292;27;45413;-66
2022/06/08 01:16:04;;;;;;;;;3.67;2.00;;;;;18.79;60.36;100406.44;5078607;27;45317;-66
2022/06/08 01:18:31;;;;;;;;;5.67;3.00;;;;;18.73;60.54;100401.59;5076381;27;45428;-66
2022/06/08 01:21:21;;;;;;;;;2.00;2.00;;;;;18.72;60.04;100402.59;5077111;27;45784;-66
2022/06/08 01:24:00;;;;;;;;;1.67;1.00;;;;;18.71;60.11;100403.59;5078200;28;45247;-67
2022/06/08 01:27:06;;;;;;;;;5.00;3.00;;;;;18.65;59.94;100406.03;5076015;27;45389;-66
2022/06/08 01:29:37;;;;;;;;;2.33;2.33;;;;;18.63;60.76;100406.13;5060038;27;45386;-65
2022/06/08 01:32:08;;;;;;;;;3.00;3.00;;;;;18.60;60.47;100390.25;5076458;27;46776;-66
2022/06/08 01:34:33;;;;;;;;;2.00;2.00;;;;;18.59;60.63;100383.16;5080680;27;45226;-66
2022/06/08 01:37:22;;;;;;;;;2.67;2.00;;;;;18.60;60.96;100403.69;5077469;27;45408;-67
2022/06/08 01:40:09;;;;;;;;;2.00;2.00;;;;;18.59;60.80;100393.94;5075458;27;45457;-66
2022/06/08 01:42:54;;;;;;;;;2.00;2.00;;;;;18.55;60.71;100379.06;5074012;27;45490;-66
2022/06/08 01:45:29;;;;;;;;;3.00;2.00;;;;;18.55;60.34;100390.69;5075484;27;45488;-67
2022/06/08 01:48:15;;;;;;;;;3.33;2.67;;;;;18.51;61.08;100399.19;5076104;27;45511;-66
2022/06/08 01:50:53;;;;;;;;;3.67;2.00;;;;;18.47;61.12;100413.91;5064158;27;46002;-66
2022/06/08 01:53:37;;;;;;;;;2.00;2.00;;;;;18.44;61.03;100409.66;5057329;27;47011;-66
2022/06/08 01:56:06;;;;;;;;;2.00;2.00;;;;;18.41;61.40;100404.56;5076903;27;45381;-65
2022/06/08 01:58:37;;;;;;;;;5.00;2.00;;;;;18.40;60.81;100399.31;5075695;27;45586;-65
2022/06/08 02:01:12;;;;;;;;;2.67;2.00;;;;;18.36;61.71;100398.75;5076062;27;45439;-65
2022/06/08 02:03:51;;;;;;;;;1.67;1.67;;;;;18.33;61.67;100390.94;5078855;27;46289;-65
2022/06/08 02:06:24;;;;;;;;;4.00;2.00;;;;;18.36;62.31;100400.56;5075557;27;45436;-66
2022/06/08 02:08:56;;;;;;;;;5.33;3.00;;;;;18.32;62.47;100385.69;5092809;27;45412;-66
2022/06/08 02:11:47;;;;;;;;;2.00;2.00;;;;;18.27;63.10;100381.59;5075577;27;45892;-66
2022/06/08 02:14:19;;;;;;;;;3.00;2.00;;;;;18.25;62.13;100371.97;5056784;28;45533;-68
2022/06/08 02:16:52;;;;;;;;;1.67;1.00;;;;;18.13;62.79;100363.16;5075234;27;45416;-65
2022/06/08 02:19:37;;;;;;;;;2.67;2.00;;;;;18.12;64.25;100382.16;5075919;27;45372;-65
2022/06/08 02:22:10;;;;;;;;;2.00;2.00;;;;;18.06;64.01;100367.41;5074117;27;46340;-66
2022/06/08 02:24:47;;;;;;;;;3.00;1.33;;;;;18.02;64.30;100375.91;5075564;27;46262;-65
2022/06/08 02:27:24;;;;;;;;;2.00;2.00;;;;;17.96;63.88;100382.66;5074621;27;45449;-66
2022/06/08 02:29:53;;;;;;;;;3.67;3.00;;;;;17.90;64.23;100383.22;5075609;27;45312;-66
2022/06/08 02:35:39;;;;;;;;;4.33;2.67;;;;;17.89;66.93;100387.75;5073943;27;45803;-67
2022/06/08 02:38:13;;;;;;;;;2.00;2.00;;;;;17.78;68.79;100381.63;5076139;27;45323;-65
2022/06/08 02:40:43;;;;;;;;;5.00;2.33;;;;;17.71;69.10;100378.66;5076452;27;45241;-67
2022/06/08 02:43:20;;;;;;;;;2.00;2.00;;;;;17.62;69.74;100380.28;5077038;27;45355;-66
2022/06/08 02:45:57;;;;;;;;;2.00;2.00;;;;;17.52;68.87;100379.41;5075304;27;45325;-66
2022/06/08 02:48:22;;;;;;;;;3.00;2.00;;;;;17.46;69.91;100366.50;5076274;27;45473;-67
2022/06/08 02:50:51;;;;;;;;;3.67;3.67;;;;;17.42;70.59;100373.13;5075993;27;45510;-66
2022/06/08 02:53:17;;;;;;;;;2.67;2.67;;;;;17.34;70.52;100367.59;5075735;27;45544;-66
2022/06/08 02:56:09;;;;;;;;;5.67;3.67;;;;;17.25;70.43;100363.88;5075394;27;45449;-65
2022/06/08 02:58:56;;;;;;;;;3.00;3.00;;;;;17.20;69.81;100367.94;5076176;28;45340;-64
2022/06/08 03:01:42;;;;;;;;;2.00;2.00;;;;;17.13;70.77;100351.50;5077854;27;45352;-67
2022/06/08 03:04:18;;;;;;;;;3.00;3.00;;;;;17.07;70.34;100358.25;5070535;27;45564;-67
2022/06/08 03:06:59;;;;;;;;;3.00;1.00;;;;;17.03;71.14;100359.50;5075994;27;46790;-66
2022/06/08 03:09:25;;;;;;;;;4.00;2.67;;;;;17.00;72.10;100351.72;5076436;27;45328;-67
2022/06/08 03:12:02;;;;;;;;;3.00;3.00;;;;;16.90;78.42;100350.78;5075996;27;45811;-67
2022/06/08 03:14:29;;;;;;;;;2.00;2.00;;;;;16.82;77.89;100341.72;5075976;27;45337;-68
2022/06/08 03:17:01;;;;;;;;;5.00;3.00;;;;;16.72;82.43;100331.75;5073273;27;46150;-69
2022/06/08 03:19:30;;;;;;;;;5.00;3.00;;;;;16.56;76.70;100320.59;5074420;27;45361;-70
2022/06/08 03:21:56;;;;;;;;;3.00;2.67;;;;;16.59;75.94;100314.09;5075146;27;45586;-68
2022/06/08 03:24:23;;;;;;;;;7.00;2.00;;;;;16.57;74.07;100305.34;5075334;27;45444;-69
2022/06/08 03:26:53;;;;;;;;;4.00;2.00;;;;;16.53;74.94;100300.22;5090307;27;46976;-69
2022/06/08 03:29:19;;;;;;;;;5.00;3.00;;;;;16.48;75.22;100293.53;5074330;27;45445;-69
2022/06/08 03:31:44;;;;;;;;;4.00;1.33;;;;;16.49;75.79;100298.78;5076080;27;45487;-68
2022/06/08 03:34:10;;;;;;;;;2.00;2.00;;;;;16.44;73.77;100290.28;5076171;27;45467;-68
2022/06/08 03:36:36;;;;;;;;;2.33;2.33;;;;;16.38;75.55;100290.78;5076476;27;45392;-69
2022/06/08 03:39:03;;;;;;;;;3.00;1.00;;;;;16.37;75.34;100291.75;5072038;27;45459;-68
2022/06/08 03:41:28;;;;;;;;;3.67;1.00;;;;;16.37;75.33;100293.59;5075617;27;45545;-68
2022/06/08 03:43:54;;;;;;;;;1.00;1.00;;;;;16.33;75.44;100293.03;5075044;28;45350;-69
2022/06/08 03:46:22;;;;;;;;;4.00;2.67;;;;;16.30;74.97;100287.91;5073812;27;46182;-69
2022/06/08 03:48:48;;;;;;;;;3.67;2.67;;;;;16.30;76.16;100287.91;5074033;27;46162;-67
2022/06/08 03:51:17;;;;;;;;;3.00;3.00;;;;;16.23;76.00;100292.94;5075152;27;45442;-68
2022/06/08 03:53:47;;;;;;;;;4.00;4.00;;;;;16.15;77.77;100294.59;5074375;27;45565;-69
2022/06/08 03:56:16;;;;;;;;;3.67;3.00;;;;;16.14;77.43;100287.47;5077576;27;45665;-69
2022/06/08 03:58:42;;;;;;;;;7.00;2.67;;;;;16.17;76.98;100287.25;5073544;27;45425;-68
2022/06/08 04:01:07;;;;;;;;;3.33;2.00;;;;;16.09;76.65;100284.34;5075273;27;45396;-69
2022/06/08 04:03:33;;;;;;;;;5.00;2.00;;;;;16.06;77.01;100289.97;5076670;27;45270;-69
2022/06/08 04:06:00;;;;;;;;;3.00;3.00;;;;;16.06;77.83;100287.31;5077665;27;45508;-68
2022/06/08 04:08:26;;;;;;;;;1.00;1.00;;;;;16.04;78.08;100286.59;5086654;27;45443;-67
2022/06/08 04:10:52;;;;;;;;;5.67;5.00;;;;;16.03;77.98;100285.72;5074525;27;45318;-68
2022/06/08 04:13:17;;;;;;;;;3.00;3.00;;;;;15.99;78.14;100272.69;5077221;27;45643;-68
2022/06/08 04:15:43;;;;;;;;;6.33;2.00;;;;;16.06;78.16;100269.38;5081610;27;45630;-68
2022/06/08 04:18:11;;;;;;;;;2.00;2.00;;;;;16.08;77.84;100270.09;5075845;27;45497;-68
2022/06/08 04:20:37;;;;;;;;;4.00;3.00;;;;;16.06;78.45;100268.53;5079977;27;45467;-68
2022/06/08 04:23:05;;;;;;;;;4.33;4.00;;;;;16.05;79.41;100273.03;5081967;27;45403;-68
2022/06/08 04:25:30;;;;;;;;;3.00;3.00;;;;;16.01;79.68;100249.25;5080485;27;45627;-67
2022/06/08 04:27:57;;;;;;;;;3.00;3.00;;;;;16.07;78.06;100248.75;5078429;27;45443;-68
2022/06/08 04:30:22;;;;;;;;;3.00;3.00;;;;;16.06;79.07;100242.53;5077563;27;45305;-70
2022/06/08 04:32:48;;;;;;;;;3.33;2.33;;;;;16.03;79.77;100241.97;5078352;27;45601;-69
2022/06/08 04:35:15;;;;;;;;;4.67;3.67;;;;;16.00;79.58;100237.69;5081816;27;45923;-69
2022/06/08 04:37:40;;;;;;;;;3.00;3.00;;;;;16.02;79.78;100240.25;5078720;28;45423;-70
2022/06/08 04:40:09;;;;;;;;;4.00;2.33;;;;;15.99;79.64;100229.78;5074370;27;46584;-67
2022/06/08 04:42:35;;;;;;;;;5.33;3.00;;;;;16.03;80.39;100236.59;5081865;27;45322;-68
2022/06/08 04:45:02;;;;;;;;;4.00;3.00;;;;;16.00;80.45;100232.31;5077040;27;46613;-69
2022/06/08 04:47:27;;;;;;;;;4.33;3.67;;;;;16.01;80.69;100235.84;5075745;27;45223;-67
2022/06/08 04:49:52;;;;;;;;;3.00;3.00;;;;;15.98;81.03;100241.47;5078925;27;45351;-68
2022/06/08 04:52:18;;;;;;;;;5.00;3.00;;;;;15.95;80.28;100239.06;5080070;27;45168;-69
2022/06/08 04:54:44;;;;;;;;;4.50;2.50;;;;;15.89;80.27;100233.25;5077817;27;46462;-68
2022/06/08 04:57:11;;;;;;;;;5.33;3.00;;;;;15.90;80.76;100226.06;5077338;27;45282;-69
2022/06/08 04:59:37;;;;;;;;;3.67;3.33;;;;;15.89;78.86;100222.53;5076266;27;45475;-69
2022/06/08 05:02:03;;;;;;;;;4.00;3.00;;;;;15.86;79.92;100228.13;5074489;27;45631;-69
2022/06/08 05:04:28;;;;;;;;;4.67;4.67;;;;;15.84;82.16;100224.72;5080506;27;46308;-67
2022/06/08 05:06:53;;;;;;;;;3.00;3.00;;;;;15.83;83.91;100214.97;5078801;27;45275;-68
2022/06/08 05:09:19;;;;;;;;;3.00;3.00;;;;;15.83;84.48;100209.59;5077569;27;45388;-68
2022/06/08 05:11:44;;;;;;;;;5.33;4.00;;;;;15.84;81.90;100216.66;5079583;27;45310;-68
2022/06/08 05:14:10;;;;;;;;;4.33;3.00;;;;;15.85;80.67;100213.00;5078691;27;45973;-68
2022/06/08 05:16:35;;;;;;;;;3.00;3.00;;;;;15.81;80.00;100208.91;5078770;27;45478;-69
2022/06/08 05:19:01;;;;;;;;;3.00;3.00;;;;;15.76;81.21;100203.06;5080095;27;45381;-68
2022/06/08 05:21:26;;;;;;;;;3.00;3.00;;;;;15.76;81.80;100202.22;5077859;27;45483;-68
2022/06/08 05:23:53;;;;;;;;;3.00;2.00;;;;;15.73;83.10;100208.66;5079498;27;47000;-68
2022/06/08 05:26:18;;;;;;;;;2.67;2.67;;;;;15.65;82.39;100197.75;5078048;28;45465;-69
2022/06/08 05:28:44;;;;;;;;;4.00;3.00;;;;;15.65;82.14;100188.88;5068751;27;45516;-68
2022/06/08 05:31:10;;;;;;;;;3.67;3.00;;;;;15.75;82.75;100200.50;5075330;27;45453;-71
2022/06/08 05:33:36;;;;;;;;;2.67;2.00;;;;;15.78;82.20;100198.44;5076482;27;47891;-68
2022/06/08 05:36:01;;;;;;;;;4.67;2.67;;;;;15.76;82.30;100195.03;5072720;28;45380;-68
2022/06/08 05:38:27;;;;;;;;;7.67;5.33;;;;;15.79;81.89;100202.81;5079041;27;47208;-68
2022/06/08 05:40:56;;;;;;;;;2.67;2.67;;;;;15.76;82.60;100188.81;5091627;27;45733;-65
2022/06/08 05:43:22;;;;;;;;;2.00;2.00;;;;;15.74;81.84;100199.66;5076360;27;45291;-65
2022/06/08 05:45:48;;;;;;;;;2.00;2.00;;;;;15.78;82.16;100206.47;5074392;27;45473;-64
2022/06/08 05:48:14;;;;;;;;;3.00;3.00;;;;;15.81;81.67;100190.13;5077409;27;45341;-68
2022/06/08 05:50:41;;;;;;;;;4.67;3.00;;;;;15.82;82.15;100199.88;5074945;27;45515;-68
2022/06/08 05:53:07;;;;;;;;;2.33;2.33;;;;;15.80;81.44;100198.31;5056879;28;45370;-63
2022/06/08 05:55:33;;;;;;;;;3.00;3.00;;;;;15.77;81.16;100199.41;5088147;27;45514;-68
2022/06/08 05:57:59;;;;;;;;;2.33;2.33;;;;;15.79;81.00;100200.13;5076155;28;45483;-64
2022/06/08 06:00:28;;;;;;;;;2.67;2.67;;;;;15.81;82.79;100195.47;5088312;27;47017;-61
2022/06/08 06:02:54;;;;;;;;;5.00;2.00;;;;;15.82;82.37;100196.34;5078082;27;45432;-62
2022/06/08 06:05:24;;;;;;;;;4.33;4.33;;;;;15.81;83.38;100198.16;5078050;27;45266;-63
2022/06/08 06:07:50;;;;;;;;;3.00;3.00;;;;;15.80;85.63;100204.50;5076145;27;45491;-68
2022/06/08 06:10:17;;;;;;;;;2.33;2.33;;;;;15.76;84.68;100197.72;5097546;27;45519;-64
2022/06/08 06:12:42;;;;;;;;;4.00;2.67;;;;;15.73;88.57;100202.47;5082682;27;46293;-62
2022/06/08 06:15:10;;;;;;;;;3.00;3.00;;;;;15.71;88.73;100194.56;5077141;27;45245;-65
2022/06/08 06:17:36;;;;;;;;;2.00;2.00;;;;;15.72;89.51;100204.28;5076479;27;45325;-63
2022/06/08 06:20:02;;;;;;;;;4.00;3.00;;;;;15.72;89.30;100206.97;5077719;27;45347;-67
2022/06/08 06:22:32;;;;;;;;;6.00;4.33;;;;;15.73;90.28;100203.31;5073083;27;45522;-68
2022/06/08 06:24:58;;;;;;;;;6.00;5.00;;;;;15.72;89.18;100206.97;5075329;27;45413;-66
2022/06/08 06:27:24;;;;;;;;;2.00;2.00;;;;;15.67;87.19;100198.47;5075740;28;45370;-69
2022/06/08 06:29:51;;;;;;;;;4.00;2.67;;;;;15.63;87.00;100202.41;5073909;27;45673;-69
2022/06/08 06:32:29;;;;;;;;;2.00;2.00;;;;;15.70;89.83;100202.72;5073052;27;46614;-57
2022/06/08 06:34:56;;;;;;;;;5.00;4.00;;;;;15.72;89.82;100198.94;5073201;27;45349;-59
2022/06/08 06:37:22;;;;;;;;;4.33;2.67;;;;;15.75;89.54;100195.97;5075070;27;45772;-55
2022/06/08 06:39:48;;;;;;;;;2.33;1.67;;;;;15.88;88.57;100212.75;5066535;27;46012;-60
2022/06/08 06:42:16;;;;;;;;;1.67;1.00;;;;;15.88;88.36;100211.91;5058262;27;45475;-60
2022/06/08 06:44:41;;;;;;;;;1.67;1.67;;;;;15.86;88.98;100214.72;5068770;27;45401;-59
2022/06/08 06:47:07;;;;;;;;;2.33;2.33;;;;;15.84;89.88;100210.47;5075204;27;45369;-58
2022/06/08 06:49:32;;;;;;;;;3.00;2.00;;;;;15.89;89.11;100210.94;5072443;28;45630;-54
2022/06/08 06:51:58;;;;;;;;;3.00;3.00;;;;;15.89;86.76;100203.75;5069457;27;45388;-58
2022/06/08 06:54:24;;;;;;;;;3.33;3.33;;;;;15.89;86.62;100216.31;5074609;27;45816;-62
2022/06/08 06:56:50;;;;;;;;;1.00;1.00;;;;;15.90;88.23;100213.50;5070896;27;45249;-58
2022/06/08 06:59:15;;;;;;;;;1.00;1.00;;;;;15.95;86.58;100220.28;5069680;27;45665;-57
2022/06/08 07:01:41;;;;;;;;;3.00;3.00;;;;;15.90;84.99;100208.13;5070981;27;46243;-56
2022/06/08 07:04:06;;;;;;;;;2.00;2.00;;;;;15.95;85.94;100209.56;5073689;27;45382;-56
2022/06/08 07:06:32;;;;;;;;;2.67;2.00;;;;;15.96;86.46;100214.78;5074638;27;45456;-57
2022/06/08 07:08:59;;;;;;;;;3.33;1.67;;;;;15.98;86.27;100218.19;5076367;27;45366;-56
2022/06/08 07:11:35;;;;;;;;;2.00;2.00;;;;;15.95;85.21;100214.94;5071114;27;46259;-57
2022/06/08 07:14:04;;;;;;;;;1.00;1.00;;;;;15.99;85.73;100224.41;5074666;27;45526;-59
2022/06/08 07:16:31;;;;;;;;;1.00;1.00;;;;;16.00;85.31;100215.38;5071560;27;45481;-56
2022/06/08 07:18:56;;;;;;;;;3.67;2.00;;;;;15.98;86.64;100220.03;5074409;27;45437;-59
2022/06/08 07:21:22;;;;;;;;;2.00;0.00;;;;;15.97;85.28;100221.00;5073691;27;46047;-57
2022/06/08 07:23:48;;;;;;;;;0.00;0.00;;;;;15.97;85.00;100211.13;5073648;27;45333;-55
2022/06/08 07:26:13;;;;;;;;;2.00;2.00;;;;;16.01;85.57;100217.06;5074041;27;45370;-58
2022/06/08 07:28:39;;;;;;;;;3.00;1.00;;;;;15.98;85.77;100217.34;5074105;27;45304;-60
2022/06/08 07:31:06;;;;;;;;;1.00;1.00;;;;;15.91;85.50;100223.25;5076257;27;46354;-60
2022/06/08 07:33:33;;;;;;;;;2.67;0.33;;;;;15.96;87.28;100230.03;5075289;27;45336;-58
2022/06/08 07:36:00;;;;;;;;;1.00;1.00;;;;;16.03;86.05;100220.50;5075624;27;45441;-55
2022/06/08 07:38:25;;;;;;;;;1.00;1.00;;;;;16.06;85.51;100223.78;5074895;27;45549;-54
2022/06/08 07:40:51;;;;;;;;;2.33;1.00;;;;;16.05;86.24;100223.91;5074183;27;46238;-61
2022/06/08 07:43:16;;;;;;;;;1.00;1.00;;;;;16.06;85.69;100220.25;5075225;27;45451;-57
2022/06/08 07:45:43;;;;;;;;;0.00;0.00;;;;;16.14;85.59;100225.78;5075631;27;45300;-58
2022/06/08 07:50:53;;;;;;;;;0.00;0.00;;;;;16.34;86.09;100222.25;5085560;27;45277;-59
2022/06/08 07:53:18;;;;;;;;;0.00;0.00;;;;;16.48;84.41;100221.06;5078014;27;45977;-60
2022/06/08 07:55:44;;;;;;;;;0.00;0.00;;;;;16.55;83.64;100216.03;5077614;27;45649;-56
2022/06/08 07:58:10;;;;;;;;;1.00;1.00;;;;;16.60;83.78;100220.00;5077497;27;45603;-55
2022/06/08 08:00:35;;;;;;;;;1.00;1.00;;;;;16.62;82.12;100223.41;5078663;27;45305;-55
2022/06/08 08:03:01;;;;;;;;;1.00;1.00;;;;;16.70;83.13;100228.16;5078882;27;45421;-56
2022/06/08 08:05:27;;;;;;;;;3.00;1.00;;;;;16.74;82.43;100210.78;5077259;27;46982;-58
2022/06/08 08:07:53;;;;;;;;;2.33;1.00;;;;;16.89;82.29;100220.16;5078314;27;45387;-59
2022/06/08 08:10:24;;;;;;;;;0.00;0.00;;;;;17.05;82.03;100214.28;5094508;27;45444;-58
2022/06/08 08:12:51;;;;;;;;;3.00;1.00;;;;;17.20;81.83;100214.78;5068609;27;45615;-55
2022/06/08 08:15:17;;;;;;;;;0.67;0.67;;;;;17.37;81.63;100208.72;5078910;27;45388;-53
2022/06/08 08:17:43;;;;;;;;;0.00;0.00;;;;;17.47;79.87;100209.59;5077065;27;45416;-56
2022/06/08 08:20:12;;;;;;;;;1.00;1.00;;;;;17.63;80.81;100212.56;5074075;27;45337;-58
2022/06/08 08:22:38;;;;;;;;;0.33;0.00;;;;;17.77;79.24;100211.34;5078111;27;45353;-56
2022/06/08 08:25:04;;;;;;;;;0.33;0.33;;;;;17.90;79.61;100200.28;5067497;27;45423;-58
2022/06/08 08:27:29;;;;;;;;;1.67;1.00;;;;;18.01;79.23;100197.47;5078458;27;45695;-58
2022/06/08 08:29:54;;;;;;;;;0.00;0.00;;;;;18.04;79.32;100197.16;5076577;27;45515;-58
2022/06/08 08:32:20;;;;;;;;;0.00;0.00;;;;;18.05;77.53;100200.69;5077377;27;45535;-54
2022/06/08 08:34:45;;;;;;;;;0.00;0.00;;;;;18.02;79.17;100184.84;5077403;27;45267;-55
2022/06/08 08:37:11;;;;;;;;;0.00;0.00;;;;;17.96;79.24;100192.47;5078363;27;45280;-53
2022/06/08 08:39:36;;;;;;;;;1.00;1.00;;;;;17.94;79.33;100196.31;5076538;27;46332;-52
2022/06/08 08:42:21;;;;;;;;;2.00;0.00;;;;;17.94;78.48;100199.84;5077464;27;45440;-55
2022/06/08 08:45:11;;;;;;;;;0.67;0.67;;;;;17.89;79.91;100201.28;5076223;27;45632;-54
2022/06/08 08:48:06;;;;;;;;;0.00;0.00;;;;;18.01;79.87;100212.75;5070663;27;45438;-57
2022/06/08 08:50:51;;;;;;;;;0.00;0.00;;;;;18.12;78.51;100207.22;5072122;27;45358;-55
2022/06/08 08:53:24;;;;;;;;;1.00;1.00;;;;;18.20;79.05;100218.94;5066531;27;45322;-57
2022/06/08 08:56:05;;;;;;;;;0.00;0.00;;;;;18.33;78.16;100215.09;5077192;27;45329;-60
2022/06/08 08:58:36;;;;;;;;;1.00;1.00;;;;;18.42;77.76;100214.25;5065703;27;45544;-57
2022/06/08 09:01:19;;;;;;;;;0.67;0.67;;;;;18.46;77.72;100215.63;5081868;27;46174;-56
2022/06/08 09:03:49;;;;;;;;;0.00;0.00;;;;;18.46;77.40;100211.09;5083521;27;45276;-57
2022/06/08 09:06:19;;;;;;;;;0.00;0.00;;;;;18.47;77.83;100215.50;5058780;27;45302;-53
2022/06/08 09:08:48;;;;;;;;;1.00;1.00;;;;;18.58;77.54;100222.56;5073613;27;45615;-49
2022/06/08 09:11:17;;;;;;;;;1.00;1.00;;;;;18.72;77.55;100213.19;5070289;27;45515;-57
2022/06/08 09:13:47;;;;;;;;;1.00;1.00;;;;;18.74;76.74;100211.19;5071716;27;45445;-59
2022/06/08 09:16:37;;;;;;;;;0.00;0.00;;;;;18.91;76.88;100220.34;5073779;27;45186;-59
2022/06/08 09:19:20;;;;;;;;;1.00;1.00;;;;;19.04;75.99;100228.94;5072226;27;45467;-56
2022/06/08 09:21:46;;;;;;;;;1.00;1.00;;;;;19.07;75.79;100228.66;5069942;28;45484;-57
2022/06/08 09:24:28;;;;;;;;;1.00;1.00;;;;;19.20;75.69;100221.06;5077734;27;45491;-58
2022/06/08 09:27:10;;;;;;;;;1.00;1.00;;;;;19.29;73.87;100217.47;5075857;27;45468;-56
2022/06/08 09:29:48;;;;;;;;;1.33;1.33;;;;;19.41;75.06;100218.09;5073215;27;45667;-55
2022/06/08 09:32:26;;;;;;;;;1.75;1.00;;;;;19.59;74.36;100212.75;5071512;28;45485;-56
2022/06/08 09:34:58;;;;;;;;;1.00;1.00;;;;;19.80;74.71;100210.63;5072323;27;45439;-48
2022/06/08 09:37:24;;;;;;;;;1.67;0.67;;;;;20.29;71.15;100211.00;5057231;28;45318;-55
2022/06/08 09:39:52;;;;;;;;;1.00;1.00;;;;;20.79;72.91;100207.63;5056315;28;45563;-57
2022/06/08 09:42:45;;;;;;;;;0.25;0.25;;;;;21.42;69.71;100202.69;5057149;27;45481;-53
2022/06/08 09:45:23;;;;;;;;;2.75;1.00;;;;;21.86;68.09;100196.97;5062115;27;45452;-60
2022/06/08 09:51:27;;;;;;;;;0.25;0.25;;;;;22.68;64.80;100200.50;5077603;27;45405;-55
2022/06/08 09:54:20;;;;;;;;;2.25;1.00;;;;;22.77;61.15;100199.44;5073798;27;45678;-61
2022/06/08 09:57:02;;;;;;;;;2.00;2.00;;;;;22.75;65.86;100190.66;5074945;27;45378;-58
2022/06/08 09:59:52;;;;;;;;;1.00;1.00;;;;;22.80;63.47;100191.00;5074662;27;45404;-58
2022/06/08 10:03:00;;;;;;;;;1.00;1.00;;;;;22.89;63.25;100187.25;5075361;27;46041;-59
2022/06/08 10:05:45;;;;;;;;;12.75;10.00;;;;;23.05;64.24;100190.91;5058870;28;45556;-59
2022/06/08 10:08:25;;;;;;;;;10.75;9.75;;;;;23.17;62.48;100187.63;5076635;27;45631;-54
2022/06/08 10:10:53;;;;;;;;;2.00;2.00;;;;;23.26;57.10;100188.44;5074079;27;45422;-55
2022/06/08 10:13:24;;;;;;;;;4.50;4.50;;;;;23.48;58.03;100175.94;5072790;27;45564;-52
2022/06/08 10:15:56;;;;;;;;;8.00;7.75;;;;;23.81;60.79;100166.53;5076338;27;46153;-57
2022/06/08 10:18:29;;;;;;;;;3.00;3.00;;;;;23.83;59.26;100171.81;5074952;27;45350;-57
2022/06/08 10:21:04;;;;;;;;;2.25;1.00;;;;;23.78;58.22;100168.78;5075338;27;45494;-54
2022/06/08 10:23:39;;;;;;;;;0.00;0.00;;;;;23.60;58.42;100170.97;5073894;27;45645;-53
2022/06/08 10:26:27;;;;;;;;;1.25;1.25;;;;;23.48;60.32;100179.50;5075128;27;46431;-50
2022/06/08 10:29:11;;;;;;;;;2.00;2.00;;;;;23.17;61.46;100208.47;5075654;28;45365;-48
2022/06/08 10:31:49;;;;;;;;;3.00;3.00;;;;;22.61;63.23;100234.72;5073788;27;46103;-56
2022/06/08 10:34:21;;;;;;;;;1.75;1.75;;;;;21.77;68.36;100230.50;5075139;27;45281;-70
2022/06/08 10:36:53;;;;;;;;;1.50;1.50;;;;;19.80;83.38;100221.41;5079990;27;46372;-62
2022/06/08 10:39:22;;;;;;;;;2.50;1.00;;;;;19.05;82.97;100217.16;5076111;27;45332;-65
2022/06/08 10:44:58;;;;;;;;;2.00;2.00;;;;;18.93;93.40;100207.59;5060132;27;45534;-67
2022/06/08 10:47:37;;;;;;;;;1.00;1.00;;;;;18.91;95.57;100212.28;5068445;27;45450;-67
2022/06/08 10:50:03;;;;;;;;;2.67;1.33;;;;;19.06;95.75;100205.38;5072755;27;45640;-65
2022/06/08 10:52:47;;;;;;;;;2.33;1.67;;;;;19.05;92.42;100201.00;5074685;27;45500;-68
2022/06/08 10:55:18;;;;;;;;;3.00;3.00;;;;;19.06;90.64;100211.63;5076284;27;45705;-67
2022/06/08 10:57:49;;;;;;;;;3.00;3.00;;;;;18.94;84.27;100217.34;5076093;27;45428;-66
2022/06/08 11:00:24;;;;;;;;;2.00;2.00;;;;;18.81;83.14;100218.53;5068639;27;45581;-68
2022/06/08 11:02:59;;;;;;;;;6.33;5.00;;;;;18.77;83.15;100211.75;5067077;27;45424;-68
2022/06/08 11:05:34;;;;;;;;;2.33;2.00;;;;;18.94;82.54;100212.81;5074307;27;45527;-70
2022/06/08 11:08:02;;;;;;;;;2.00;2.00;;;;;19.06;79.20;100216.16;5073165;27;46016;-60
2022/06/08 11:10:57;;;;;;;;;5.00;3.67;;;;;19.20;81.02;100223.75;5072818;27;45516;-72
2022/06/08 11:13:26;;;;;;;;;3.00;2.00;;;;;19.41;77.96;100215.41;5074581;27;45446;-70
2022/06/08 11:16:26;;;;;;;;;3.00;2.00;;;;;19.48;76.69;100224.56;5074938;27;45564;-69
2022/06/08 11:19:00;;;;;;;;;3.67;3.00;;;;;19.75;77.44;100218.31;5067787;28;45418;-63
2022/06/08 11:21:49;;;;;;;;;2.67;2.67;;;;;20.10;75.91;100211.19;5069249;27;45368;-71
2022/06/08 11:24:36;;;;;;;;;5.00;5.00;;;;;20.50;73.33;100211.53;5096977;27;45450;-70
2022/06/08 11:27:11;;;;;;;;;3.75;3.00;;;;;20.48;71.37;100210.84;5074154;27;45328;-70
2022/06/08 11:30:02;;;;;;;;;6.00;5.00;;;;;20.37;71.12;100210.22;5072763;27;45439;-70
2022/06/08 11:32:39;;;;;;;;;3.00;2.00;;;;;20.42;67.73;100202.50;5072942;28;45525;-69
2022/06/08 11:35:18;;;;;;;;;4.00;2.00;;;;;20.52;66.31;100204.09;5076532;28;45367;-70
2022/06/08 11:37:57;;;;;;;;;2.00;2.00;;;;;20.78;67.67;100205.94;5061131;27;45328;-71
2022/06/08 11:40:31;;;;;;;;;1.25;1.25;;;;;20.98;64.82;100188.47;5068361;27;45565;-71
2022/06/08 11:43:19;;;;;;;;;2.00;2.00;;;;;21.28;63.41;100206.03;5091956;27;45329;-72
2022/06/08 11:45:52;;;;;;;;;3.00;3.00;;;;;21.37;61.11;100201.50;5063435;28;45536;-70
2022/06/08 11:48:29;;;;;;;;;1.50;1.50;;;;;21.20;60.17;100206.78;5056462;28;45308;-71
2022/06/08 11:51:01;;;;;;;;;1.00;1.00;;;;;21.04;61.35;100204.03;5059144;27;45432;-69
2022/06/08 11:53:28;;;;;;;;;2.50;2.50;;;;;20.98;62.92;100207.41;5075766;27;45332;-71
2022/06/08 11:55:58;;;;;;;;;2.00;2.00;;;;;20.86;63.01;100208.69;5072119;27;45335;-70